Sharpsville, IN (46068)

11:03 AM EST on February 13, 2016 (GMT -0500)
Becks - Foundation Seed Facility | | Change Station
CLOSE
Current Station
Personal Weather Station
Location: Sharpsville, IN
Elevation: 886 ft
Nearby Weather Stations

Elev 886 ft 40.38 °N, 86.13 °W | Updated 2 minutes ago

Clear
Clear
12.6 °F
Feels Like -1 °F
N
11.0
Wind Variable Wind from NW
Gusts 29.0 mph

Today
High -- | Low -- °F
--% Chance of Precip.
Yesterday
High -- | Low -- °F
Precip. -- in
Pressure 30.54 in
Visibility 10.0 miles
Clouds Clear
Windchill -1 °F
Dew Point 4 °F
Humidity 67%
Rainfall 0.00 in
Snow Depth Not available.
7:40 AM 6:16 PM
Waxing Crescent, 32% visible
METAR KOKK 131555Z AUTO 32011G15KT 10SM CLR M11/M18 A3054 RMK AO1
Pressure 30.54 in
Visibility 10.0 miles
Clouds Clear
Windchill -1 °F
Dew Point 4 °F
Humidity 67%
Rainfall 0.00 in
Snow Depth Not available.
7:40 AM 6:16 PM
Waxing Crescent, 32% visible
METAR KOKK 131555Z AUTO 32011G15KT 10SM CLR M11/M18 A3054 RMK AO1

10-Day Weather Forecast

Almanac

Astronomy

Feb. 13, 2016 Rise Set
Actual Time
Civil Twilight
Nautical Twilight
Astronomical Twilight
Moon
Length of Visible Light
Length of Day
Tomorrow will be .
, % of the Moon is Illuminated

Today's Extremes

State Highs State Lows

Community

WunderPhotos

Upload Photos

1,892,595 photos uploaded!

WunderBlog® & News

Nearby

Air Quality

  Air Quality AQ Index Pollutant
Not available.

Snow Depth

Station Depth Elevation

Earthquake Activity

City Distance Mag. Time & Date
Minimum magnitude displayed is 2.5.

Coastal Water Temperatures

Place Temperature

Stations

Nearby Weather Stations

Station Location Temp. Windchill Dew Point Humidity Wind Precip. Elev Updated Type
                   

Watches & Warnings

There are currently no watches in effect.